Iona Mcallister — WDD4840 — position and weather

sailwx.info

Track history (hours):
 
Tides and Currents Weather Stations Pressure Air Temp Water Temp Dewpoint Dewpoint Depression Visibility Wind Speed Wind Dir Waves Ship Positions

Iona Mcallister

Owner: McAllister Towing & Transportation Co. Inc., Staten Island, NY. More information available from US FCC via Universal Licensing System and Coast Guard Vessel Documentation Center.

Last reported at 2015-Feb-06 11:33 UTC. Time now 2015-Mar-28 18:56 UTC.
Position N 40°39' W 074°04'.
Warning: this ship's position is 50 days out of date.

Length 36 m.

Type: Towing. MMSI: 367149890.

Date/timePositionNaut miles runAvg speedWind from/ knotsBaromVisibWave heightAir tempDewpointWater temp
2015-Feb-06 11:33N 40°39' W 074°04'7 7.3
2015-Feb-06 10:33N 40°45' W 073°58'16 7.1
2015-Feb-06 08:17N 40°55' W 073°41'6 7.7
2015-Feb-06 07:33N 40°58' W 073°36'8 7.9
2015-Feb-06 06:33N 41°01' W 073°26'8 8.0
2015-Feb-06 05:33N 41°04' W 073°16'8 8.1
2015-Feb-06 04:31N 41°06' W 073°05'8 8.0
2015-Feb-06 03:33N 41°10' W 072°57'8 7.7
2015-Feb-06 02:33N 41°11' W 072°47'8 8.0
2015-Feb-06 01:34N 41°11' W 072°36'8 8.1
2015-Feb-06 00:33N 41°11' W 072°25'9 8.6
2015-Feb-05 23:34N 41°13' W 072°14'8 8.4
2015-Feb-05 22:33N 41°14' W 072°03'8 8.0
2015-Feb-05 21:34N 41°15' W 071°53'8 7.6
2015-Feb-05 20:33N 41°17' W 071°43'8 8.1
2015-Feb-05 19:33N 41°19' W 071°32'8 8.2
2015-Feb-05 18:34N 41°25' W 071°25'10 9.7
2015-Feb-05 17:34N 41°33' W 071°19'10 9.7
2015-Feb-05 16:34N 41°41' W 071°12'1 0.8
2015-Feb-05 15:33N 41°42' W 071°11'0 0.0
2015-Feb-05 13:32N 41°42' W 071°11'0 0.0
2015-Feb-05 12:14N 41°42' W 071°11'0 0.0
2015-Feb-05 11:29N 41°42' W 071°11'0 0.0
2015-Feb-05 10:26N 41°42' W 071°11'0 0.0
2015-Feb-05 08:32N 41°42' W 071°11'0 0.0
2015-Feb-05 07:26N 41°42' W 071°11'0 0.0
2015-Feb-05 06:11N 41°42' W 071°11'0 0.0
2015-Feb-05 04:08N 41°42' W 071°11'0 0.0
2015-Feb-05 03:26N 41°42' W 071°11'0 0.0
2015-Feb-05 00:26N 41°42' W 071°11'0 0.0
2015-Feb-04 23:14N 41°42' W 071°11'0 0.0
2015-Feb-04 18:05N 41°42' W 071°11'0 0.0
2015-Feb-04 15:26N 41°42' W 071°11'0 0.0
2015-Feb-04 14:29N 41°42' W 071°11'0 0.0
2015-Feb-04 13:29N 41°42' W 071°11'0 0.0
2015-Feb-04 11:14N 41°42' W 071°11'0 0.0
2015-Feb-04 09:20N 41°42' W 071°11'0 0.0
2015-Feb-04 08:32N 41°42' W 071°11'0 0.0
2015-Feb-04 07:17N 41°42' W 071°11'0 0.0
2015-Feb-04 06:29N 41°42' W 071°11'0 0.0
2015-Feb-04 04:33N 41°42' W 071°11'6 5.9
2015-Feb-04 03:33N 41°38' W 071°17'8 8.2
2015-Feb-04 02:33N 41°30' W 071°21'5 4.7
2015-Feb-04 01:33N 41°26' W 071°18'6 5.9
2015-Feb-04 00:30N 41°26' W 071°10'16 5.2
2015-Feb-03 21:28N 41°35' W 070°53'3 0.4
2015-Feb-03 13:04N 41°38' W 070°55'  
2015-Jan-30 06:32N 41°38' W 070°55'0 0.0
2015-Jan-30 05:11N 41°38' W 070°55'0 0.0
2015-Jan-30 02:10N 41°38' W 070°55'0 0.0
2015-Jan-30 01:16N 41°38' W 070°55'0 0.0
2015-Jan-29 22:25N 41°38' W 070°55'0 0.0
2015-Jan-29 21:31N 41°38' W 070°55'0 0.0
2015-Jan-29 19:13N 41°38' W 070°55'0 0.0
2015-Jan-29 18:28N 41°38' W 070°54'0 0.0
2015-Jan-29 17:13N 41°38' W 070°55'0 0.0
2015-Jan-29 15:22N 41°38' W 070°55'0 0.0
2015-Jan-29 11:04N 41°38' W 070°55'0 0.0
2015-Jan-29 10:31N 41°38' W 070°55'0 0.0
2015-Jan-29 09:31N 41°38' W 070°55'0 0.0
2015-Jan-29 08:16N 41°38' W 070°55'0 0.0
2015-Jan-29 07:31N 41°38' W 070°55'0 0.0
2015-Jan-29 05:19N 41°38' W 070°55'  
Track history (hours):
 
Tides and Currents Weather Stations Pressure Air Temp Water Temp Dewpoint Dewpoint Depression Visibility Wind Speed Wind Dir Waves Ship Positions

Iona Mcallister

Owner: McAllister Towing & Transportation Co. Inc., Staten Island, NY. More information available from US FCC via Universal Licensing System and Coast Guard Vessel Documentation Center.

Last reported at 2015-Feb-06 11:33 UTC. Time now 2015-Mar-28 18:56 UTC.
Position N 40°39' W 074°04'.
Warning: this ship's position is 50 days out of date.

Length 36 m.

Type: Towing. MMSI: 367149890.

Date/timePositionNaut miles runAvg speedWind from/ knotsBaromVisibWave heightAir tempDewpointWater temp
2015-Feb-06 11:33N 40°39' W 074°04'7 7.3
2015-Feb-06 10:33N 40°45' W 073°58'16 7.1
2015-Feb-06 08:17N 40°55' W 073°41'6 7.7
2015-Feb-06 07:33N 40°58' W 073°36'8 7.9
2015-Feb-06 06:33N 41°01' W 073°26'8 8.0
2015-Feb-06 05:33N 41°04' W 073°16'8 8.1
2015-Feb-06 04:31N 41°06' W 073°05'8 8.0
2015-Feb-06 03:33N 41°10' W 072°57'8 7.7
2015-Feb-06 02:33N 41°11' W 072°47'8 8.0
2015-Feb-06 01:34N 41°11' W 072°36'8 8.1
2015-Feb-06 00:33N 41°11' W 072°25'9 8.6
2015-Feb-05 23:34N 41°13' W 072°14'8 8.4
2015-Feb-05 22:33N 41°14' W 072°03'8 8.0
2015-Feb-05 21:34N 41°15' W 071°53'8 7.6
2015-Feb-05 20:33N 41°17' W 071°43'8 8.1
2015-Feb-05 19:33N 41°19' W 071°32'8 8.2
2015-Feb-05 18:34N 41°25' W 071°25'10 9.7
2015-Feb-05 17:34N 41°33' W 071°19'10 9.7
2015-Feb-05 16:34N 41°41' W 071°12'1 0.8
2015-Feb-05 15:33N 41°42' W 071°11'0 0.0
2015-Feb-05 13:32N 41°42' W 071°11'0 0.0
2015-Feb-05 12:14N 41°42' W 071°11'0 0.0
2015-Feb-05 11:29N 41°42' W 071°11'0 0.0
2015-Feb-05 10:26N 41°42' W 071°11'0 0.0
2015-Feb-05 08:32N 41°42' W 071°11'0 0.0
2015-Feb-05 07:26N 41°42' W 071°11'0 0.0
2015-Feb-05 06:11N 41°42' W 071°11'0 0.0
2015-Feb-05 04:08N 41°42' W 071°11'0 0.0
2015-Feb-05 03:26N 41°42' W 071°11'0 0.0
2015-Feb-05 00:26N 41°42' W 071°11'0 0.0
2015-Feb-04 23:14N 41°42' W 071°11'0 0.0
2015-Feb-04 18:05N 41°42' W 071°11'0 0.0
2015-Feb-04 15:26N 41°42' W 071°11'0 0.0
2015-Feb-04 14:29N 41°42' W 071°11'0 0.0
2015-Feb-04 13:29N 41°42' W 071°11'0 0.0
2015-Feb-04 11:14N 41°42' W 071°11'0 0.0
2015-Feb-04 09:20N 41°42' W 071°11'0 0.0
2015-Feb-04 08:32N 41°42' W 071°11'0 0.0
2015-Feb-04 07:17N 41°42' W 071°11'0 0.0
2015-Feb-04 06:29N 41°42' W 071°11'0 0.0
2015-Feb-04 04:33N 41°42' W 071°11'6 5.9
2015-Feb-04 03:33N 41°38' W 071°17'8 8.2
2015-Feb-04 02:33N 41°30' W 071°21'5 4.7
2015-Feb-04 01:33N 41°26' W 071°18'6 5.9
2015-Feb-04 00:30N 41°26' W 071°10'16 5.2
2015-Feb-03 21:28N 41°35' W 070°53'3 0.4
2015-Feb-03 13:04N 41°38' W 070°55'  
2015-Jan-30 06:32N 41°38' W 070°55'0 0.0
2015-Jan-30 05:11N 41°38' W 070°55'0 0.0
2015-Jan-30 02:10N 41°38' W 070°55'0 0.0
2015-Jan-30 01:16N 41°38' W 070°55'0 0.0
2015-Jan-29 22:25N 41°38' W 070°55'0 0.0
2015-Jan-29 21:31N 41°38' W 070°55'0 0.0
2015-Jan-29 19:13N 41°38' W 070°55'0 0.0
2015-Jan-29 18:28N 41°38' W 070°54'0 0.0
2015-Jan-29 17:13N 41°38' W 070°55'0 0.0
2015-Jan-29 15:22N 41°38' W 070°55'0 0.0
2015-Jan-29 11:04N 41°38' W 070°55'0 0.0
2015-Jan-29 10:31N 41°38' W 070°55'0 0.0
2015-Jan-29 09:31N 41°38' W 070°55'0 0.0
2015-Jan-29 08:16N 41°38' W 070°55'0 0.0
2015-Jan-29 07:31N 41°38' W 070°55'0 0.0
2015-Jan-29 05:19N 41°38' W 070°55'  

Dump ship's entire track history